sensor_id;sensor_type;location;lat;lon;timestamp;P1;durP1;ratioP1;P2;durP2;ratioP2
15342;SDS011;7771;48.478;8.936;2022-07-22T00:00:24;7.22;;;5.90;;
15342;SDS011;7771;48.478;8.936;2022-07-22T00:02:51;7.12;;;5.65;;
15342;SDS011;7771;48.478;8.936;2022-07-22T00:05:18;6.97;;;6.00;;
15342;SDS011;7771;48.478;8.936;2022-07-22T00:07:45;7.65;;;6.15;;
15342;SDS011;7771;48.478;8.936;2022-07-22T00:10:12;7.05;;;6.10;;
15342;SDS011;7771;48.478;8.936;2022-07-22T00:12:39;6.85;;;5.65;;
15342;SDS011;7771;48.478;8.936;2022-07-22T00:15:06;6.97;;;6.15;;
15342;SDS011;7771;48.478;8.936;2022-07-22T00:17:34;6.80;;;6.10;;
15342;SDS011;7771;48.478;8.936;2022-07-22T00:20:01;7.78;;;6.07;;
15342;SDS011;7771;48.478;8.936;2022-07-22T00:22:28;6.70;;;6.10;;
15342;SDS011;7771;48.478;8.936;2022-07-22T00:24:55;7.90;;;6.28;;
15342;SDS011;7771;48.478;8.936;2022-07-22T00:27:23;8.02;;;6.57;;
15342;SDS011;7771;48.478;8.936;2022-07-22T00:29:50;8.05;;;7.25;;
15342;SDS011;7771;48.478;8.936;2022-07-22T00:32:17;9.05;;;6.90;;
15342;SDS011;7771;48.478;8.936;2022-07-22T00:34:43;9.97;;;7.67;;
15342;SDS011;7771;48.478;8.936;2022-07-22T00:37:10;9.23;;;7.00;;
15342;SDS011;7771;48.478;8.936;2022-07-22T00:39:37;8.10;;;6.87;;
15342;SDS011;7771;48.478;8.936;2022-07-22T00:42:03;7.80;;;7.00;;
15342;SDS011;7771;48.478;8.936;2022-07-22T00:44:30;10.80;;;7.20;;
15342;SDS011;7771;48.478;8.936;2022-07-22T00:46:57;9.27;;;7.15;;
15342;SDS011;7771;48.478;8.936;2022-07-22T00:49:23;7.85;;;6.70;;
15342;SDS011;7771;48.478;8.936;2022-07-22T00:51:50;8.02;;;7.10;;
15342;SDS011;7771;48.478;8.936;2022-07-22T00:54:16;8.50;;;6.97;;
15342;SDS011;7771;48.478;8.936;2022-07-22T00:56:44;8.25;;;7.45;;
15342;SDS011;7771;48.478;8.936;2022-07-22T00:59:12;9.55;;;7.10;;
15342;SDS011;7771;48.478;8.936;2022-07-22T01:01:38;10.75;;;7.30;;
15342;SDS011;7771;48.478;8.936;2022-07-22T01:04:04;7.63;;;6.80;;
15342;SDS011;7771;48.478;8.936;2022-07-22T01:06:31;8.85;;;6.62;;
15342;SDS011;7771;48.478;8.936;2022-07-22T01:08:58;8.52;;;6.87;;
15342;SDS011;7771;48.478;8.936;2022-07-22T01:11:25;9.23;;;7.53;;
15342;SDS011;7771;48.478;8.936;2022-07-22T01:13:52;8.45;;;7.57;;
15342;SDS011;7771;48.478;8.936;2022-07-22T01:16:18;8.77;;;7.77;;
15342;SDS011;7771;48.478;8.936;2022-07-22T01:18:45;9.60;;;7.37;;
15342;SDS011;7771;48.478;8.936;2022-07-22T01:21:13;11.23;;;7.23;;
15342;SDS011;7771;48.478;8.936;2022-07-22T01:23:40;8.23;;;7.40;;
15342;SDS011;7771;48.478;8.936;2022-07-22T01:26:07;8.70;;;6.80;;
15342;SDS011;7771;48.478;8.936;2022-07-22T01:28:35;8.37;;;6.90;;
15342;SDS011;7771;48.478;8.936;2022-07-22T01:31:01;7.62;;;6.82;;
15342;SDS011;7771;48.478;8.936;2022-07-22T01:33:28;10.17;;;6.50;;
15342;SDS011;7771;48.478;8.936;2022-07-22T01:35:54;9.47;;;6.90;;
15342;SDS011;7771;48.478;8.936;2022-07-22T01:38:21;8.83;;;6.73;;
15342;SDS011;7771;48.478;8.936;2022-07-22T01:40:48;7.22;;;6.53;;
15342;SDS011;7771;48.478;8.936;2022-07-22T01:43:14;10.15;;;7.43;;
15342;SDS011;7771;48.478;8.936;2022-07-22T01:45:42;8.33;;;6.67;;
15342;SDS011;7771;48.478;8.936;2022-07-22T01:48:09;7.75;;;6.50;;
15342;SDS011;7771;48.478;8.936;2022-07-22T01:50:36;8.77;;;6.97;;
15342;SDS011;7771;48.478;8.936;2022-07-22T01:53:03;7.20;;;6.50;;
15342;SDS011;7771;48.478;8.936;2022-07-22T01:55:29;8.60;;;7.00;;
15342;SDS011;7771;48.478;8.936;2022-07-22T01:57:56;9.47;;;7.70;;
15342;SDS011;7771;48.478;8.936;2022-07-22T02:00:23;8.40;;;7.50;;
15342;SDS011;7771;48.478;8.936;2022-07-22T02:02:50;7.90;;;6.37;;
15342;SDS011;7771;48.478;8.936;2022-07-22T02:05:17;8.67;;;6.87;;
15342;SDS011;7771;48.478;8.936;2022-07-22T02:07:44;9.10;;;7.63;;
15342;SDS011;7771;48.478;8.936;2022-07-22T02:10:11;7.10;;;6.37;;
15342;SDS011;7771;48.478;8.936;2022-07-22T02:12:38;7.53;;;6.70;;
15342;SDS011;7771;48.478;8.936;2022-07-22T02:15:06;7.00;;;6.37;;
15342;SDS011;7771;48.478;8.936;2022-07-22T02:17:34;8.82;;;7.10;;
15342;SDS011;7771;48.478;8.936;2022-07-22T02:20:01;7.60;;;6.87;;
15342;SDS011;7771;48.478;8.936;2022-07-22T02:22:28;7.27;;;6.57;;
15342;SDS011;7771;48.478;8.936;2022-07-22T02:24:54;8.07;;;6.30;;
15342;SDS011;7771;48.478;8.936;2022-07-22T02:27:21;8.50;;;6.60;;
15342;SDS011;7771;48.478;8.936;2022-07-22T02:29:48;7.57;;;6.73;;
15342;SDS011;7771;48.478;8.936;2022-07-22T02:32:15;7.50;;;6.50;;
15342;SDS011;7771;48.478;8.936;2022-07-22T02:34:41;7.73;;;6.93;;
15342;SDS011;7771;48.478;8.936;2022-07-22T02:37:09;9.77;;;7.57;;
15342;SDS011;7771;48.478;8.936;2022-07-22T02:39:36;8.13;;;7.00;;
15342;SDS011;7771;48.478;8.936;2022-07-22T02:42:03;9.23;;;6.13;;
15342;SDS011;7771;48.478;8.936;2022-07-22T02:44:30;10.17;;;7.00;;
15342;SDS011;7771;48.478;8.936;2022-07-22T02:46:57;8.50;;;6.60;;
15342;SDS011;7771;48.478;8.936;2022-07-22T02:49:24;8.50;;;6.97;;
15342;SDS011;7771;48.478;8.936;2022-07-22T02:51:52;7.57;;;6.10;;
15342;SDS011;7771;48.478;8.936;2022-07-22T02:54:19;9.30;;;7.30;;
15342;SDS011;7771;48.478;8.936;2022-07-22T02:56:46;8.03;;;7.23;;
15342;SDS011;7771;48.478;8.936;2022-07-22T02:59:12;8.13;;;7.33;;
15342;SDS011;7771;48.478;8.936;2022-07-22T03:01:39;9.93;;;7.63;;
15342;SDS011;7771;48.478;8.936;2022-07-22T03:04:05;12.20;;;7.17;;
15342;SDS011;7771;48.478;8.936;2022-07-22T03:06:32;10.30;;;7.90;;
15342;SDS011;7771;48.478;8.936;2022-07-22T03:08:59;8.43;;;6.80;;
15342;SDS011;7771;48.478;8.936;2022-07-22T03:11:26;7.80;;;7.07;;
15342;SDS011;7771;48.478;8.936;2022-07-22T03:13:53;7.67;;;6.97;;
15342;SDS011;7771;48.478;8.936;2022-07-22T03:16:20;7.67;;;6.87;;
15342;SDS011;7771;48.478;8.936;2022-07-22T03:18:47;8.63;;;7.77;;
15342;SDS011;7771;48.478;8.936;2022-07-22T03:21:15;8.20;;;7.37;;
15342;SDS011;7771;48.478;8.936;2022-07-22T03:23:42;8.73;;;7.27;;
15342;SDS011;7771;48.478;8.936;2022-07-22T03:26:10;9.07;;;7.83;;
15342;SDS011;7771;48.478;8.936;2022-07-22T03:28:36;7.70;;;7.00;;
15342;SDS011;7771;48.478;8.936;2022-07-22T03:31:04;10.37;;;7.17;;
15342;SDS011;7771;48.478;8.936;2022-07-22T03:33:32;9.43;;;7.77;;
15342;SDS011;7771;48.478;8.936;2022-07-22T03:35:59;7.90;;;7.10;;
15342;SDS011;7771;48.478;8.936;2022-07-22T03:38:26;7.33;;;6.63;;
15342;SDS011;7771;48.478;8.936;2022-07-22T03:40:53;7.63;;;6.73;;
15342;SDS011;7771;48.478;8.936;2022-07-22T03:43:20;9.20;;;7.47;;
15342;SDS011;7771;48.478;8.936;2022-07-22T03:45:48;7.63;;;6.93;;
15342;SDS011;7771;48.478;8.936;2022-07-22T03:48:14;8.60;;;7.77;;
15342;SDS011;7771;48.478;8.936;2022-07-22T03:50:42;8.90;;;6.93;;
15342;SDS011;7771;48.478;8.936;2022-07-22T03:53:09;8.10;;;6.70;;
15342;SDS011;7771;48.478;8.936;2022-07-22T03:55:35;8.67;;;7.73;;
15342;SDS011;7771;48.478;8.936;2022-07-22T03:58:03;9.03;;;7.77;;
15342;SDS011;7771;48.478;8.936;2022-07-22T04:00:30;9.67;;;7.80;;
15342;SDS011;7771;48.478;8.936;2022-07-22T04:02:57;9.43;;;8.23;;
15342;SDS011;7771;48.478;8.936;2022-07-22T04:05:24;9.90;;;7.17;;
15342;SDS011;7771;48.478;8.936;2022-07-22T04:07:51;8.57;;;7.70;;
15342;SDS011;7771;48.478;8.936;2022-07-22T04:10:17;9.37;;;8.00;;
15342;SDS011;7771;48.478;8.936;2022-07-22T04:12:44;10.17;;;7.47;;
15342;SDS011;7771;48.478;8.936;2022-07-22T04:15:10;8.03;;;7.03;;
15342;SDS011;7771;48.478;8.936;2022-07-22T04:17:37;8.03;;;7.23;;
15342;SDS011;7771;48.478;8.936;2022-07-22T04:20:05;8.20;;;7.00;;
15342;SDS011;7771;48.478;8.936;2022-07-22T04:22:32;7.47;;;6.77;;
15342;SDS011;7771;48.478;8.936;2022-07-22T04:24:59;8.00;;;7.20;;
15342;SDS011;7771;48.478;8.936;2022-07-22T04:27:25;9.30;;;7.00;;
15342;SDS011;7771;48.478;8.936;2022-07-22T04:29:52;7.60;;;6.83;;
15342;SDS011;7771;48.478;8.936;2022-07-22T04:32:19;11.90;;;7.20;;
15342;SDS011;7771;48.478;8.936;2022-07-22T04:34:46;7.73;;;6.83;;
15342;SDS011;7771;48.478;8.936;2022-07-22T04:37:13;7.97;;;7.20;;
15342;SDS011;7771;48.478;8.936;2022-07-22T04:39:40;10.53;;;7.63;;
15342;SDS011;7771;48.478;8.936;2022-07-22T04:42:07;11.30;;;7.73;;
15342;SDS011;7771;48.478;8.936;2022-07-22T04:44:34;8.43;;;7.17;;
15342;SDS011;7771;48.478;8.936;2022-07-22T04:47:00;8.60;;;7.70;;
15342;SDS011;7771;48.478;8.936;2022-07-22T04:49:27;11.00;;;7.53;;
15342;SDS011;7771;48.478;8.936;2022-07-22T04:51:54;9.47;;;7.37;;
15342;SDS011;7771;48.478;8.936;2022-07-22T04:54:20;9.13;;;7.13;;
15342;SDS011;7771;48.478;8.936;2022-07-22T04:56:47;7.93;;;7.07;;
15342;SDS011;7771;48.478;8.936;2022-07-22T04:59:14;8.83;;;7.93;;
15342;SDS011;7771;48.478;8.936;2022-07-22T05:01:41;10.23;;;8.07;;
15342;SDS011;7771;48.478;8.936;2022-07-22T05:04:08;8.40;;;7.43;;
15342;SDS011;7771;48.478;8.936;2022-07-22T05:06:35;12.10;;;7.47;;
15342;SDS011;7771;48.478;8.936;2022-07-22T05:09:03;9.47;;;7.20;;
15342;SDS011;7771;48.478;8.936;2022-07-22T05:11:29;9.60;;;8.40;;
15342;SDS011;7771;48.478;8.936;2022-07-22T05:13:56;9.33;;;7.23;;
15342;SDS011;7771;48.478;8.936;2022-07-22T05:16:24;9.30;;;8.30;;
15342;SDS011;7771;48.478;8.936;2022-07-22T05:18:50;9.30;;;7.53;;
15342;SDS011;7771;48.478;8.936;2022-07-22T05:21:17;9.18;;;7.82;;
15342;SDS011;7771;48.478;8.936;2022-07-22T05:23:44;11.15;;;8.02;;
15342;SDS011;7771;48.478;8.936;2022-07-22T05:26:11;8.43;;;7.53;;
15342;SDS011;7771;48.478;8.936;2022-07-22T05:28:38;9.27;;;7.43;;
15342;SDS011;7771;48.478;8.936;2022-07-22T05:31:05;8.67;;;7.67;;
15342;SDS011;7771;48.478;8.936;2022-07-22T05:33:32;9.90;;;8.02;;
15342;SDS011;7771;48.478;8.936;2022-07-22T05:35:59;10.02;;;7.62;;
15342;SDS011;7771;48.478;8.936;2022-07-22T05:38:26;9.60;;;8.02;;
15342;SDS011;7771;48.478;8.936;2022-07-22T05:40:53;10.30;;;7.87;;
15342;SDS011;7771;48.478;8.936;2022-07-22T05:43:19;10.20;;;8.70;;
15342;SDS011;7771;48.478;8.936;2022-07-22T05:45:46;10.60;;;8.88;;
15342;SDS011;7771;48.478;8.936;2022-07-22T05:48:13;9.73;;;8.70;;
15342;SDS011;7771;48.478;8.936;2022-07-22T05:50:41;9.43;;;8.10;;
15342;SDS011;7771;48.478;8.936;2022-07-22T05:53:08;9.63;;;8.68;;
15342;SDS011;7771;48.478;8.936;2022-07-22T05:55:34;8.93;;;8.00;;
15342;SDS011;7771;48.478;8.936;2022-07-22T05:58:01;9.27;;;8.40;;
15342;SDS011;7771;48.478;8.936;2022-07-22T06:00:28;9.45;;;7.78;;
15342;SDS011;7771;48.478;8.936;2022-07-22T06:02:55;9.30;;;8.35;;
15342;SDS011;7771;48.478;8.936;2022-07-22T06:05:22;8.88;;;8.07;;
15342;SDS011;7771;48.478;8.936;2022-07-22T06:07:49;8.82;;;8.02;;
15342;SDS011;7771;48.478;8.936;2022-07-22T06:10:17;9.55;;;8.57;;
15342;SDS011;7771;48.478;8.936;2022-07-22T06:12:44;9.90;;;8.15;;
15342;SDS011;7771;48.478;8.936;2022-07-22T06:15:12;9.15;;;8.20;;
15342;SDS011;7771;48.478;8.936;2022-07-22T06:17:39;10.15;;;9.10;;
15342;SDS011;7771;48.478;8.936;2022-07-22T06:20:06;9.93;;;8.07;;
15342;SDS011;7771;48.478;8.936;2022-07-22T06:22:33;9.30;;;8.35;;
15342;SDS011;7771;48.478;8.936;2022-07-22T06:25:00;11.10;;;8.68;;
15342;SDS011;7771;48.478;8.936;2022-07-22T06:27:27;11.02;;;9.07;;
15342;SDS011;7771;48.478;8.936;2022-07-22T06:29:54;9.35;;;8.35;;
15342;SDS011;7771;48.478;8.936;2022-07-22T06:32:21;10.32;;;9.20;;
15342;SDS011;7771;48.478;8.936;2022-07-22T06:34:49;10.63;;;9.55;;
15342;SDS011;7771;48.478;8.936;2022-07-22T06:37:15;9.90;;;8.93;;
15342;SDS011;7771;48.478;8.936;2022-07-22T06:39:42;11.45;;;8.85;;
15342;SDS011;7771;48.478;8.936;2022-07-22T06:42:08;11.65;;;9.90;;
15342;SDS011;7771;48.478;8.936;2022-07-22T06:44:35;10.77;;;9.68;;
15342;SDS011;7771;48.478;8.936;2022-07-22T06:47:01;10.30;;;9.05;;
15342;SDS011;7771;48.478;8.936;2022-07-22T06:49:29;10.75;;;8.52;;
15342;SDS011;7771;48.478;8.936;2022-07-22T06:51:55;9.73;;;8.73;;
15342;SDS011;7771;48.478;8.936;2022-07-22T06:54:22;11.23;;;8.60;;
15342;SDS011;7771;48.478;8.936;2022-07-22T06:56:49;12.73;;;9.07;;
15342;SDS011;7771;48.478;8.936;2022-07-22T06:59:15;9.13;;;7.78;;
15342;SDS011;7771;48.478;8.936;2022-07-22T07:01:42;9.13;;;8.32;;
15342;SDS011;7771;48.478;8.936;2022-07-22T07:04:09;8.70;;;7.80;;
15342;SDS011;7771;48.478;8.936;2022-07-22T07:06:37;9.05;;;8.15;;
15342;SDS011;7771;48.478;8.936;2022-07-22T07:09:04;9.10;;;8.00;;
15342;SDS011;7771;48.478;8.936;2022-07-22T07:11:31;8.68;;;7.97;;
15342;SDS011;7771;48.478;8.936;2022-07-22T07:13:57;9.90;;;7.97;;
15342;SDS011;7771;48.478;8.936;2022-07-22T07:16:24;8.27;;;7.50;;
15342;SDS011;7771;48.478;8.936;2022-07-22T07:18:50;8.30;;;7.60;;
15342;SDS011;7771;48.478;8.936;2022-07-22T07:21:17;8.38;;;7.43;;
15342;SDS011;7771;48.478;8.936;2022-07-22T07:23:44;8.18;;;7.40;;
15342;SDS011;7771;48.478;8.936;2022-07-22T07:26:12;7.50;;;6.90;;
15342;SDS011;7771;48.478;8.936;2022-07-22T07:28:38;7.82;;;7.12;;
15342;SDS011;7771;48.478;8.936;2022-07-22T07:31:05;9.85;;;7.97;;
15342;SDS011;7771;48.478;8.936;2022-07-22T07:33:31;8.23;;;7.18;;
15342;SDS011;7771;48.478;8.936;2022-07-22T07:35:58;7.45;;;6.75;;
15342;SDS011;7771;48.478;8.936;2022-07-22T07:38:25;8.90;;;8.20;;
15342;SDS011;7771;48.478;8.936;2022-07-22T07:40:52;7.80;;;7.05;;
15342;SDS011;7771;48.478;8.936;2022-07-22T07:43:19;7.97;;;6.85;;
15342;SDS011;7771;48.478;8.936;2022-07-22T07:45:47;11.88;;;8.32;;
15342;SDS011;7771;48.478;8.936;2022-07-22T07:48:14;7.75;;;7.05;;
15342;SDS011;7771;48.478;8.936;2022-07-22T07:50:41;8.90;;;8.10;;
15342;SDS011;7771;48.478;8.936;2022-07-22T07:53:07;7.78;;;6.97;;
15342;SDS011;7771;48.478;8.936;2022-07-22T07:55:34;8.60;;;7.70;;
15342;SDS011;7771;48.478;8.936;2022-07-22T07:58:01;7.80;;;7.10;;
15342;SDS011;7771;48.478;8.936;2022-07-22T08:00:29;7.53;;;6.93;;
15342;SDS011;7771;48.478;8.936;2022-07-22T08:02:56;8.02;;;7.32;;
15342;SDS011;7771;48.478;8.936;2022-07-22T08:05:23;7.65;;;6.95;;
15342;SDS011;7771;48.478;8.936;2022-07-22T08:07:51;7.65;;;6.97;;
15342;SDS011;7771;48.478;8.936;2022-07-22T08:10:17;7.15;;;6.45;;
15342;SDS011;7771;48.478;8.936;2022-07-22T08:12:44;7.18;;;6.47;;
15342;SDS011;7771;48.478;8.936;2022-07-22T08:15:10;7.90;;;6.72;;
15342;SDS011;7771;48.478;8.936;2022-07-22T08:17:37;6.57;;;6.05;;
15342;SDS011;7771;48.478;8.936;2022-07-22T08:20:04;7.78;;;6.87;;
15342;SDS011;7771;48.478;8.936;2022-07-22T08:22:31;7.80;;;7.10;;
15342;SDS011;7771;48.478;8.936;2022-07-22T08:24:58;7.45;;;6.72;;
15342;SDS011;7771;48.478;8.936;2022-07-22T08:27:25;7.95;;;7.25;;
15342;SDS011;7771;48.478;8.936;2022-07-22T08:29:52;8.98;;;7.60;;
15342;SDS011;7771;48.478;8.936;2022-07-22T08:32:20;8.98;;;7.53;;
15342;SDS011;7771;48.478;8.936;2022-07-22T08:34:46;8.30;;;7.37;;
15342;SDS011;7771;48.478;8.936;2022-07-22T08:37:13;7.50;;;6.85;;
15342;SDS011;7771;48.478;8.936;2022-07-22T08:39:40;8.82;;;7.30;;
15342;SDS011;7771;48.478;8.936;2022-07-22T08:42:06;9.77;;;7.47;;
15342;SDS011;7771;48.478;8.936;2022-07-22T08:44:34;7.43;;;6.82;;
15342;SDS011;7771;48.478;8.936;2022-07-22T08:47:00;9.25;;;8.35;;
15342;SDS011;7771;48.478;8.936;2022-07-22T08:49:27;8.63;;;7.05;;
15342;SDS011;7771;48.478;8.936;2022-07-22T08:51:54;7.80;;;7.10;;
15342;SDS011;7771;48.478;8.936;2022-07-22T08:54:20;7.15;;;6.40;;
15342;SDS011;7771;48.478;8.936;2022-07-22T08:56:48;8.10;;;7.35;;
15342;SDS011;7771;48.478;8.936;2022-07-22T08:59:15;9.63;;;6.97;;
15342;SDS011;7771;48.478;8.936;2022-07-22T09:04:20;8.30;;;7.50;;
15342;SDS011;7771;48.478;8.936;2022-07-22T09:06:47;8.10;;;7.30;;
15342;SDS011;7771;48.478;8.936;2022-07-22T09:09:13;7.82;;;7.03;;
15342;SDS011;7771;48.478;8.936;2022-07-22T09:11:40;7.12;;;6.43;;
15342;SDS011;7771;48.478;8.936;2022-07-22T09:14:06;6.90;;;6.30;;
15342;SDS011;7771;48.478;8.936;2022-07-22T09:16:41;7.80;;;7.10;;
15342;SDS011;7771;48.478;8.936;2022-07-22T09:19:06;7.18;;;6.45;;
15342;SDS011;7771;48.478;8.936;2022-07-22T09:21:34;8.48;;;6.60;;
15342;SDS011;7771;48.478;8.936;2022-07-22T09:24:00;8.27;;;7.43;;
15342;SDS011;7771;48.478;8.936;2022-07-22T09:26:36;8.27;;;7.47;;
15342;SDS011;7771;48.478;8.936;2022-07-22T09:29:04;7.43;;;6.62;;
15342;SDS011;7771;48.478;8.936;2022-07-22T09:31:31;7.65;;;6.65;;
15342;SDS011;7771;48.478;8.936;2022-07-22T09:33:57;6.82;;;6.20;;
15342;SDS011;7771;48.478;8.936;2022-07-22T09:36:25;6.87;;;6.22;;
15342;SDS011;7771;48.478;8.936;2022-07-22T09:38:52;7.00;;;6.30;;
15342;SDS011;7771;48.478;8.936;2022-07-22T09:41:19;6.78;;;6.25;;
15342;SDS011;7771;48.478;8.936;2022-07-22T09:43:46;7.55;;;6.43;;
15342;SDS011;7771;48.478;8.936;2022-07-22T09:46:13;7.15;;;6.55;;
15342;SDS011;7771;48.478;8.936;2022-07-22T09:48:39;7.15;;;6.47;;
15342;SDS011;7771;48.478;8.936;2022-07-22T09:51:06;7.10;;;6.40;;
15342;SDS011;7771;48.478;8.936;2022-07-22T09:53:33;8.30;;;6.05;;
15342;SDS011;7771;48.478;8.936;2022-07-22T09:56:00;7.10;;;6.40;;
15342;SDS011;7771;48.478;8.936;2022-07-22T09:58:26;7.90;;;6.00;;
15342;SDS011;7771;48.478;8.936;2022-07-22T10:00:54;7.57;;;6.90;;
15342;SDS011;7771;48.478;8.936;2022-07-22T10:03:25;6.62;;;6.03;;
15342;SDS011;7771;48.478;8.936;2022-07-22T10:05:50;7.93;;;6.05;;
15342;SDS011;7771;48.478;8.936;2022-07-22T10:08:16;7.72;;;6.90;;
15342;SDS011;7771;48.478;8.936;2022-07-22T10:10:43;6.85;;;6.25;;
15342;SDS011;7771;48.478;8.936;2022-07-22T10:13:09;14.25;;;6.68;;
15342;SDS011;7771;48.478;8.936;2022-07-22T10:15:36;7.55;;;5.97;;
15342;SDS011;7771;48.478;8.936;2022-07-22T10:18:05;7.22;;;6.43;;
15342;SDS011;7771;48.478;8.936;2022-07-22T10:20:30;7.28;;;6.37;;
15342;SDS011;7771;48.478;8.936;2022-07-22T10:22:58;7.22;;;6.40;;
15342;SDS011;7771;48.478;8.936;2022-07-22T10:25:26;6.65;;;6.05;;
15342;SDS011;7771;48.478;8.936;2022-07-22T10:27:55;6.97;;;6.37;;
15342;SDS011;7771;48.478;8.936;2022-07-22T10:30:21;7.62;;;6.93;;
15342;SDS011;7771;48.478;8.936;2022-07-22T10:35:26;6.87;;;6.28;;
15342;SDS011;7771;48.478;8.936;2022-07-22T10:37:54;7.45;;;6.70;;
15342;SDS011;7771;48.478;8.936;2022-07-22T10:40:21;6.87;;;6.28;;
15342;SDS011;7771;48.478;8.936;2022-07-22T10:45:37;6.87;;;6.05;;
15342;SDS011;7771;48.478;8.936;2022-07-22T10:48:03;6.47;;;5.93;;
15342;SDS011;7771;48.478;8.936;2022-07-22T10:50:40;6.28;;;5.68;;
15342;SDS011;7771;48.478;8.936;2022-07-22T10:53:08;7.05;;;5.90;;
15342;SDS011;7771;48.478;8.936;2022-07-22T10:55:34;7.12;;;6.32;;
15342;SDS011;7771;48.478;8.936;2022-07-22T11:00:48;6.22;;;5.62;;
15342;SDS011;7771;48.478;8.936;2022-07-22T11:05:49;7.70;;;6.65;;
15342;SDS011;7771;48.478;8.936;2022-07-22T11:08:16;5.87;;;5.37;;
15342;SDS011;7771;48.478;8.936;2022-07-22T11:10:49;6.72;;;6.07;;
15342;SDS011;7771;48.478;8.936;2022-07-22T11:15:55;7.07;;;6.30;;
15342;SDS011;7771;48.478;8.936;2022-07-22T11:18:22;6.37;;;5.78;;
15342;SDS011;7771;48.478;8.936;2022-07-22T11:20:50;6.85;;;6.12;;
15342;SDS011;7771;48.478;8.936;2022-07-22T11:23:17;6.25;;;5.65;;
15342;SDS011;7771;48.478;8.936;2022-07-22T11:25:45;5.87;;;5.10;;
15342;SDS011;7771;48.478;8.936;2022-07-22T11:28:12;6.97;;;6.22;;
15342;SDS011;7771;48.478;8.936;2022-07-22T11:30:39;8.52;;;6.20;;
15342;SDS011;7771;48.478;8.936;2022-07-22T11:33:06;6.95;;;5.82;;
15342;SDS011;7771;48.478;8.936;2022-07-22T11:35:33;6.00;;;5.45;;
15342;SDS011;7771;48.478;8.936;2022-07-22T11:37:59;5.60;;;5.12;;
15342;SDS011;7771;48.478;8.936;2022-07-22T11:40:31;6.28;;;5.78;;
15342;SDS011;7771;48.478;8.936;2022-07-22T11:45:26;6.07;;;5.57;;
15342;SDS011;7771;48.478;8.936;2022-07-22T11:47:53;6.95;;;6.35;;
15342;SDS011;7771;48.478;8.936;2022-07-22T11:50:29;6.55;;;5.87;;
15342;SDS011;7771;48.478;8.936;2022-07-22T11:52:52;6.37;;;5.78;;
15342;SDS011;7771;48.478;8.936;2022-07-22T11:55:19;5.68;;;5.18;;
15342;SDS011;7771;48.478;8.936;2022-07-22T11:57:47;6.50;;;5.90;;
15342;SDS011;7771;48.478;8.936;2022-07-22T12:00:13;6.97;;;5.50;;
15342;SDS011;7771;48.478;8.936;2022-07-22T12:02:41;6.22;;;5.72;;
15342;SDS011;7771;48.478;8.936;2022-07-22T12:05:08;5.87;;;5.37;;
15342;SDS011;7771;48.478;8.936;2022-07-22T12:07:34;5.82;;;5.30;;
15342;SDS011;7771;48.478;8.936;2022-07-22T12:10:01;5.95;;;5.40;;
15342;SDS011;7771;48.478;8.936;2022-07-22T12:15:04;5.57;;;5.07;;
15342;SDS011;7771;48.478;8.936;2022-07-22T12:17:31;6.85;;;5.47;;
15342;SDS011;7771;48.478;8.936;2022-07-22T12:20:08;5.45;;;4.95;;
15342;SDS011;7771;48.478;8.936;2022-07-22T12:22:25;5.68;;;5.20;;
15342;SDS011;7771;48.478;8.936;2022-07-22T12:24:58;5.95;;;5.37;;
15342;SDS011;7771;48.478;8.936;2022-07-22T12:27:24;5.90;;;5.40;;
15342;SDS011;7771;48.478;8.936;2022-07-22T12:29:51;6.20;;;5.60;;
15342;SDS011;7771;48.478;8.936;2022-07-22T12:32:25;5.57;;;4.87;;
15342;SDS011;7771;48.478;8.936;2022-07-22T12:34:58;6.90;;;5.82;;
15342;SDS011;7771;48.478;8.936;2022-07-22T12:37:27;7.75;;;5.40;;
15342;SDS011;7771;48.478;8.936;2022-07-22T12:39:54;5.90;;;5.40;;
15342;SDS011;7771;48.478;8.936;2022-07-22T12:42:39;5.90;;;5.37;;
15342;SDS011;7771;48.478;8.936;2022-07-22T12:45:05;5.95;;;5.30;;
15342;SDS011;7771;48.478;8.936;2022-07-22T12:47:53;5.50;;;5.00;;
15342;SDS011;7771;48.478;8.936;2022-07-22T12:52:56;6.07;;;5.47;;
15342;SDS011;7771;48.478;8.936;2022-07-22T12:55:21;6.28;;;5.78;;
15342;SDS011;7771;48.478;8.936;2022-07-22T12:57:48;5.37;;;4.90;;
15342;SDS011;7771;48.478;8.936;2022-07-22T13:00:19;6.05;;;5.55;;
15342;SDS011;7771;48.478;8.936;2022-07-22T13:02:45;6.22;;;5.70;;
15342;SDS011;7771;48.478;8.936;2022-07-22T13:05:12;6.28;;;5.68;;
15342;SDS011;7771;48.478;8.936;2022-07-22T13:07:40;6.00;;;5.40;;
15342;SDS011;7771;48.478;8.936;2022-07-22T13:10:07;7.07;;;5.25;;
15342;SDS011;7771;48.478;8.936;2022-07-22T13:12:34;5.95;;;5.18;;
15342;SDS011;7771;48.478;8.936;2022-07-22T13:15:00;6.30;;;5.70;;
15342;SDS011;7771;48.478;8.936;2022-07-22T13:17:27;6.57;;;5.97;;
15342;SDS011;7771;48.478;8.936;2022-07-22T13:19:54;5.53;;;5.03;;
15342;SDS011;7771;48.478;8.936;2022-07-22T13:22:20;7.43;;;6.40;;
15342;SDS011;7771;48.478;8.936;2022-07-22T13:24:47;6.22;;;5.68;;
15342;SDS011;7771;48.478;8.936;2022-07-22T13:27:13;5.78;;;5.28;;
15342;SDS011;7771;48.478;8.936;2022-07-22T13:29:40;5.53;;;5.03;;
15342;SDS011;7771;48.478;8.936;2022-07-22T13:32:07;6.20;;;5.60;;
15342;SDS011;7771;48.478;8.936;2022-07-22T13:34:33;5.55;;;5.05;;
15342;SDS011;7771;48.478;8.936;2022-07-22T13:37:00;6.15;;;5.53;;
15342;SDS011;7771;48.478;8.936;2022-07-22T13:39:27;5.55;;;4.95;;
15342;SDS011;7771;48.478;8.936;2022-07-22T13:41:54;5.93;;;5.43;;
15342;SDS011;7771;48.478;8.936;2022-07-22T13:44:22;6.07;;;5.47;;
15342;SDS011;7771;48.478;8.936;2022-07-22T13:46:48;5.90;;;5.37;;
15342;SDS011;7771;48.478;8.936;2022-07-22T13:49:15;6.22;;;5.30;;
15342;SDS011;7771;48.478;8.936;2022-07-22T13:51:42;6.00;;;5.40;;
15342;SDS011;7771;48.478;8.936;2022-07-22T13:54:08;6.20;;;5.60;;
15342;SDS011;7771;48.478;8.936;2022-07-22T13:56:35;5.37;;;4.87;;
15342;SDS011;7771;48.478;8.936;2022-07-22T13:59:02;6.60;;;5.03;;
15342;SDS011;7771;48.478;8.936;2022-07-22T14:01:28;5.00;;;4.60;;
15342;SDS011;7771;48.478;8.936;2022-07-22T14:03:54;6.30;;;5.70;;
15342;SDS011;7771;48.478;8.936;2022-07-22T14:06:21;6.18;;;5.45;;
15342;SDS011;7771;48.478;8.936;2022-07-22T14:08:48;7.03;;;5.32;;
15342;SDS011;7771;48.478;8.936;2022-07-22T14:11:16;5.80;;;5.28;;
15342;SDS011;7771;48.478;8.936;2022-07-22T14:13:43;5.68;;;5.18;;
15342;SDS011;7771;48.478;8.936;2022-07-22T14:16:10;6.95;;;6.35;;
15342;SDS011;7771;48.478;8.936;2022-07-22T14:18:42;5.28;;;4.85;;
15342;SDS011;7771;48.478;8.936;2022-07-22T14:21:09;5.22;;;4.82;;
15342;SDS011;7771;48.478;8.936;2022-07-22T14:23:37;5.70;;;5.15;;
15342;SDS011;7771;48.478;8.936;2022-07-22T14:26:04;5.53;;;5.03;;
15342;SDS011;7771;48.478;8.936;2022-07-22T14:28:32;5.62;;;5.12;;
15342;SDS011;7771;48.478;8.936;2022-07-22T14:30:59;5.30;;;4.80;;
15342;SDS011;7771;48.478;8.936;2022-07-22T14:33:25;7.18;;;5.57;;
15342;SDS011;7771;48.478;8.936;2022-07-22T14:35:52;5.78;;;5.30;;
15342;SDS011;7771;48.478;8.936;2022-07-22T14:38:19;5.90;;;5.43;;
15342;SDS011;7771;48.478;8.936;2022-07-22T14:40:45;7.18;;;5.18;;
15342;SDS011;7771;48.478;8.936;2022-07-22T14:43:12;7.97;;;5.57;;
15342;SDS011;7771;48.478;8.936;2022-07-22T14:45:39;6.20;;;5.60;;
15342;SDS011;7771;48.478;8.936;2022-07-22T14:48:07;5.50;;;5.00;;
15342;SDS011;7771;48.478;8.936;2022-07-22T14:50:34;5.53;;;5.03;;
15342;SDS011;7771;48.478;8.936;2022-07-22T14:53:01;6.25;;;5.65;;
15342;SDS011;7771;48.478;8.936;2022-07-22T14:55:29;5.18;;;4.78;;
15342;SDS011;7771;48.478;8.936;2022-07-22T14:57:56;5.75;;;5.32;;
15342;SDS011;7771;48.478;8.936;2022-07-22T15:00:23;5.03;;;4.62;;
15342;SDS011;7771;48.478;8.936;2022-07-22T15:02:51;5.68;;;5.18;;
15342;SDS011;7771;48.478;8.936;2022-07-22T15:05:17;7.03;;;5.12;;
15342;SDS011;7771;48.478;8.936;2022-07-22T15:07:44;7.75;;;5.40;;
15342;SDS011;7771;48.478;8.936;2022-07-22T15:10:10;5.78;;;5.28;;
15342;SDS011;7771;48.478;8.936;2022-07-22T15:12:37;5.72;;;5.12;;
15342;SDS011;7771;48.478;8.936;2022-07-22T15:15:04;7.12;;;5.87;;
15342;SDS011;7771;48.478;8.936;2022-07-22T15:17:34;6.15;;;5.65;;
15342;SDS011;7771;48.478;8.936;2022-07-22T15:19:59;6.00;;;5.50;;
15342;SDS011;7771;48.478;8.936;2022-07-22T15:22:26;6.95;;;5.60;;